createdAt,value
2019-05-16T00:01:00.078Z,2.17
2019-05-16T00:03:31.884Z,7.90
2019-05-16T00:06:03.611Z,4.03
2019-05-16T00:08:35.363Z,4.33
2019-05-16T00:11:08.627Z,4.93
2019-05-16T00:13:40.503Z,3.47
2019-05-16T00:16:12.297Z,2.87
2019-05-16T00:18:44.128Z,2.53
2019-05-16T00:21:17.780Z,8.00
2019-05-16T00:23:49.466Z,4.80
2019-05-16T00:26:21.167Z,2.60
2019-05-16T00:28:53.028Z,3.87
2019-05-16T00:31:24.729Z,3.70
2019-05-16T00:33:57.884Z,3.47
2019-05-16T00:36:29.772Z,2.43
2019-05-16T00:39:01.521Z,4.50
2019-05-16T00:41:33.221Z,2.83
2019-05-16T00:44:05.046Z,5.43
2019-05-16T00:46:38.531Z,2.50
2019-05-16T00:49:10.485Z,4.27
2019-05-16T00:51:42.189Z,3.17
2019-05-16T00:54:13.920Z,3.70
2019-05-16T00:56:46.122Z,3.63
2019-05-16T00:59:18.637Z,7.23
2019-05-16T01:01:50.510Z,6.77
2019-05-16T01:04:22.381Z,4.83
2019-05-16T01:06:54.084Z,6.40
2019-05-16T01:09:28.126Z,4.83
2019-05-16T01:11:59.520Z,5.20
2019-05-16T01:14:31.246Z,2.77
2019-05-16T01:17:03.030Z,5.13
2019-05-16T01:19:34.758Z,3.50
2019-05-16T01:22:08.326Z,5.23
2019-05-16T01:24:41.522Z,4.37
2019-05-16T01:27:13.488Z,6.13
2019-05-16T01:29:45.195Z,7.83
2019-05-16T01:32:19.002Z,8.43
2019-05-16T01:34:50.653Z,6.43
2019-05-16T01:37:22.408Z,12.70
2019-05-16T01:39:54.129Z,6.63
2019-05-16T01:42:27.814Z,4.23
2019-05-16T01:44:59.441Z,9.47
2019-05-16T01:47:31.149Z,9.23
2019-05-16T01:50:03.117Z,9.87
2019-05-16T01:52:34.807Z,5.43
2019-05-16T01:55:08.284Z,6.77
2019-05-16T01:57:40.445Z,7.73
2019-05-16T02:00:12.558Z,6.10
2019-05-16T02:02:44.348Z,8.47
2019-05-16T02:05:18.593Z,14.47
2019-05-16T02:07:50.072Z,10.73
2019-05-16T02:10:22.097Z,13.77
2019-05-16T02:12:53.820Z,11.10
2019-05-16T02:15:25.639Z,5.47
2019-05-16T02:17:58.663Z,6.20
2019-05-16T02:20:30.666Z,11.40
2019-05-16T02:23:02.368Z,8.90
2019-05-16T02:25:34.093Z,5.90
2019-05-16T02:28:05.990Z,5.27
2019-05-16T02:30:37.705Z,7.53
2019-05-16T02:33:11.605Z,7.43
2019-05-16T02:35:43.025Z,7.43
2019-05-16T02:38:14.834Z,8.83
2019-05-16T02:40:46.546Z,19.10
2019-05-16T02:43:25.212Z,9.47
2019-05-16T02:45:52.316Z,9.17
2019-05-16T02:48:24.169Z,11.00
2019-05-16T02:50:55.884Z,10.23
2019-05-16T02:53:30.676Z,7.90
2019-05-16T02:56:01.677Z,9.20
2019-05-16T02:58:33.620Z,8.07
2019-05-16T03:01:05.947Z,9.10
2019-05-16T03:03:40.309Z,7.93
2019-05-16T03:06:12.848Z,5.77
2019-05-16T03:08:45.835Z,9.50
2019-05-16T03:11:20.774Z,7.10
2019-05-16T03:13:52.585Z,9.60
2019-05-16T03:16:31.315Z,12.17
2019-05-16T03:19:02.362Z,8.77
2019-05-16T03:21:34.309Z,10.20
2019-05-16T03:24:06.001Z,8.80
2019-05-16T03:26:40.692Z,8.07
2019-05-16T03:29:11.513Z,8.80
2019-05-16T03:31:45.222Z,19.77
2019-05-16T03:34:17.522Z,8.17
2019-05-16T03:36:54.336Z,10.90
2019-05-16T03:39:24.165Z,19.43
2019-05-16T03:41:56.144Z,10.23
2019-05-16T03:44:31.478Z,10.77
2019-05-16T03:47:01.546Z,12.60
2019-05-16T03:49:33.283Z,13.63
2019-05-16T03:52:05.083Z,11.03
2019-05-16T03:54:36.870Z,12.90
2019-05-16T03:57:11.379Z,12.70
2019-05-16T03:59:42.207Z,16.90
2019-05-16T04:02:15.126Z,15.13
2019-05-16T04:04:46.904Z,9.60
2019-05-16T04:07:21.332Z,11.80
2019-05-16T04:09:52.233Z,16.33
2019-05-16T04:12:23.961Z,11.87
2019-05-16T04:14:55.666Z,15.13
2019-05-16T04:17:27.511Z,15.63
2019-05-16T04:20:01.982Z,9.47
2019-05-16T04:22:32.969Z,10.87
2019-05-16T04:25:06.085Z,11.83
2019-05-16T04:27:41.235Z,14.23
2019-05-16T04:30:12.200Z,21.63
2019-05-16T04:32:44.131Z,6.13
2019-05-16T04:35:15.924Z,12.20
2019-05-16T04:37:51.063Z,13.87
2019-05-16T04:40:22.100Z,12.33
2019-05-16T04:42:54.155Z,9.70
2019-05-16T04:45:25.845Z,13.87
2019-05-16T04:48:00.239Z,18.63
2019-05-16T04:50:31.391Z,22.13
2019-05-16T04:53:03.532Z,18.97
2019-05-16T04:55:35.254Z,11.20
2019-05-16T04:58:07.066Z,9.40
2019-05-16T05:00:41.822Z,15.07
2019-05-16T05:03:12.459Z,12.27
2019-05-16T05:05:44.192Z,11.93
2019-05-16T05:08:15.993Z,10.07
2019-05-16T05:10:47.717Z,13.17
2019-05-16T05:13:22.440Z,14.10
2019-05-16T05:15:54.451Z,20.20
2019-05-16T05:18:26.181Z,41.57
2019-05-16T05:21:00.607Z,22.13
2019-05-16T05:23:31.542Z,18.53
2019-05-16T05:26:03.394Z,14.10
2019-05-16T05:28:35.105Z,19.70
2019-05-16T05:31:06.817Z,8.93
2019-05-16T05:33:41.734Z,14.27
2019-05-16T05:36:12.631Z,13.60
2019-05-16T05:38:44.501Z,8.17
2019-05-16T05:41:16.927Z,11.50
2019-05-16T05:43:50.379Z,10.80
2019-05-16T05:46:22.342Z,11.57
2019-05-16T05:48:54.150Z,10.23
2019-05-16T05:51:25.841Z,12.43
2019-05-16T05:54:00.025Z,9.33
2019-05-16T05:56:31.437Z,13.00
2019-05-16T05:59:03.421Z,11.30
2019-05-16T06:01:35.154Z,12.03
2019-05-16T06:04:07.001Z,10.77
2019-05-16T06:06:42.896Z,10.33
2019-05-16T06:09:28.127Z,13.27
2019-05-16T06:11:50.107Z,6.73
2019-05-16T06:14:21.828Z,12.47
2019-05-16T06:16:53.523Z,9.57
2019-05-16T06:19:25.341Z,9.57
2019-05-16T06:21:57.097Z,9.80
2019-05-16T06:24:30.535Z,12.13
2019-05-16T06:27:02.652Z,9.03
2019-05-16T06:29:34.404Z,9.90
2019-05-16T06:32:06.154Z,7.40
2019-05-16T06:34:40.275Z,12.37
2019-05-16T06:37:11.625Z,7.97
2019-05-16T06:39:45.383Z,4.90
2019-05-16T06:42:17.037Z,13.00
2019-05-16T06:44:50.363Z,9.97
2019-05-16T06:47:23.065Z,4.30
2019-05-16T06:49:55.073Z,8.47
2019-05-16T06:52:26.782Z,8.63
2019-05-16T06:55:00.768Z,7.33
2019-05-16T06:57:32.454Z,8.63
2019-05-16T07:00:05.491Z,11.17
2019-05-16T07:02:37.201Z,9.27
2019-05-16T07:05:10.057Z,6.10
2019-05-16T07:07:42.138Z,6.87
2019-05-16T07:10:14.061Z,8.20
2019-05-16T07:12:45.779Z,10.60
2019-05-16T07:15:17.806Z,7.13
2019-05-16T07:17:50.700Z,9.13
2019-05-16T07:20:22.736Z,5.73
2019-05-16T07:22:54.445Z,7.67
2019-05-16T07:25:26.265Z,7.03
2019-05-16T07:27:58.001Z,4.97
2019-05-16T07:30:30.361Z,4.73
2019-05-16T07:33:02.316Z,4.80
2019-05-16T07:35:34.050Z,6.03
2019-05-16T07:38:05.873Z,4.53
2019-05-16T07:40:39.942Z,6.23
2019-05-16T07:43:11.206Z,6.27
2019-05-16T07:45:43.042Z,5.77
2019-05-16T07:48:14.767Z,6.67
2019-05-16T07:50:46.586Z,3.93
2019-05-16T07:53:21.130Z,3.00
2019-05-16T07:55:52.129Z,7.30
2019-05-16T07:58:23.844Z,4.37
2019-05-16T08:01:02.472Z,7.17
2019-05-16T08:03:30.393Z,6.20
2019-05-16T08:06:02.621Z,8.23
2019-05-16T08:08:34.408Z,6.70
2019-05-16T08:11:06.159Z,4.57
2019-05-16T08:13:39.901Z,4.97
2019-05-16T08:16:11.493Z,3.23
2019-05-16T08:18:45.262Z,6.17
2019-05-16T08:21:17.202Z,7.67
2019-05-16T08:23:50.699Z,5.63
2019-05-16T08:26:22.628Z,7.80
2019-05-16T08:28:54.360Z,5.17
2019-05-16T08:31:26.162Z,12.30
2019-05-16T08:34:00.738Z,4.60
2019-05-16T08:36:31.634Z,10.20
2019-05-16T08:39:07.204Z,8.17
2019-05-16T08:41:42.139Z,5.63
2019-05-16T08:44:12.754Z,7.97
2019-05-16T08:46:44.686Z,8.73
2019-05-16T08:49:16.557Z,12.70
2019-05-16T08:51:52.157Z,11.27
2019-05-16T08:54:21.987Z,10.63
2019-05-16T08:56:53.685Z,10.17
2019-05-16T08:59:25.385Z,8.67
2019-05-16T09:01:58.209Z,8.43
2019-05-16T09:04:33.764Z,8.60
2019-05-16T09:07:04.533Z,8.40
2019-05-16T09:09:44.430Z,5.93
2019-05-16T09:12:09.945Z,12.83
2019-05-16T09:14:41.684Z,11.53
2019-05-16T09:17:13.498Z,8.33
2019-05-16T09:19:47.138Z,5.90
2019-05-16T09:22:18.848Z,12.87
2019-05-16T09:24:51.168Z,8.73
2019-05-16T09:27:23.168Z,14.20
2019-05-16T09:29:56.812Z,10.67
2019-05-16T09:32:28.580Z,9.17
2019-05-16T09:35:00.383Z,7.63
2019-05-16T09:37:32.092Z,10.60
2019-05-16T09:40:06.814Z,8.40
2019-05-16T09:42:38.584Z,12.40
2019-05-16T09:45:10.565Z,31.70
2019-05-16T09:47:42.323Z,12.53
2019-05-16T09:50:17.236Z,8.07
2019-05-16T09:52:48.341Z,11.70
2019-05-16T09:55:20.744Z,12.97
2019-05-16T09:57:54.891Z,8.50
2019-05-16T10:00:27.078Z,4.73
2019-05-16T10:02:59.086Z,9.33
2019-05-16T10:05:30.885Z,9.77
2019-05-16T10:08:03.101Z,7.47
2019-05-16T10:10:36.817Z,9.67
2019-05-16T10:13:08.690Z,11.93
2019-05-16T10:15:40.500Z,8.87
2019-05-16T10:18:12.263Z,6.43
2019-05-16T10:20:44.113Z,7.67
2019-05-16T10:23:18.156Z,6.33
2019-05-16T10:25:49.650Z,9.23
2019-05-16T10:28:21.488Z,9.17
2019-05-16T10:30:53.291Z,9.47
2019-05-16T10:33:27.269Z,7.17
2019-05-16T10:35:58.707Z,4.73
2019-05-16T10:38:30.432Z,10.93
2019-05-16T10:41:02.520Z,5.07
2019-05-16T10:43:34.303Z,6.03
2019-05-16T10:46:06.513Z,7.17
2019-05-16T10:48:38.524Z,11.70
2019-05-16T10:51:10.233Z,8.93
2019-05-16T10:54:02.310Z,6.73
2019-05-16T10:56:15.588Z,3.87
2019-05-16T10:59:14.264Z,6.43
2019-05-16T11:01:27.523Z,6.33
2019-05-16T11:03:56.794Z,4.23
2019-05-16T11:06:29.443Z,5.47
2019-05-16T11:09:01.373Z,4.50
2019-05-16T11:11:33.085Z,4.10
2019-05-16T11:14:09.022Z,3.97
2019-05-16T11:16:38.530Z,7.03
2019-05-16T11:19:17.129Z,5.37
2019-05-16T11:21:46.698Z,11.20
2019-05-16T11:24:17.836Z,6.40
2019-05-16T11:26:49.690Z,2.00
2019-05-16T11:29:21.564Z,5.83
2019-05-16T11:31:53.274Z,5.53
2019-05-16T11:34:26.683Z,3.70
2019-05-16T11:36:58.981Z,2.10
2019-05-16T11:39:30.700Z,3.83
2019-05-16T11:42:02.518Z,3.83
2019-05-16T11:44:34.330Z,6.40
2019-05-16T11:47:08.188Z,4.33
2019-05-16T11:49:39.752Z,6.20
2019-05-16T11:52:11.463Z,3.37
2019-05-16T11:54:43.273Z,5.57
2019-05-16T11:57:17.732Z,5.70
2019-05-16T11:59:48.724Z,5.30
2019-05-16T12:02:20.427Z,6.70
2019-05-16T12:04:52.249Z,8.60
2019-05-16T12:07:32.248Z,5.80
2019-05-16T12:09:57.592Z,6.87
2019-05-16T12:12:29.396Z,5.93
2019-05-16T12:15:01.331Z,4.97
2019-05-16T12:17:33.031Z,3.70
2019-05-16T12:20:07.529Z,4.37
2019-05-16T12:22:38.729Z,2.90
2019-05-16T12:25:10.719Z,6.43
2019-05-16T12:27:42.746Z,8.90
2019-05-16T12:30:17.648Z,9.73
2019-05-16T12:32:49.624Z,5.00
2019-05-16T12:35:21.334Z,4.00
2019-05-16T12:37:53.032Z,7.97
2019-05-16T12:40:26.746Z,5.30
2019-05-16T12:42:58.342Z,5.07
2019-05-16T12:45:30.160Z,5.50
2019-05-16T12:48:02.179Z,4.17
2019-05-16T12:50:33.998Z,5.40
2019-05-16T12:53:07.988Z,7.60
2019-05-16T12:55:39.449Z,5.70
2019-05-16T12:58:13.328Z,4.90
2019-05-16T13:00:53.949Z,9.87
2019-05-16T13:03:18.355Z,5.77
2019-05-16T13:05:50.116Z,5.03
2019-05-16T13:08:21.841Z,5.60
2019-05-16T13:10:53.665Z,5.23
2019-05-16T13:13:27.621Z,9.27
2019-05-16T13:15:59.035Z,9.50
2019-05-16T13:18:30.746Z,8.70
2019-05-16T13:21:02.565Z,6.57
2019-05-16T13:23:34.487Z,7.03
2019-05-16T13:26:07.450Z,6.27
2019-05-16T13:28:39.449Z,8.03
2019-05-16T13:31:11.382Z,8.97
2019-05-16T13:33:43.204Z,12.97
2019-05-16T13:36:17.397Z,7.77
2019-05-16T13:38:48.689Z,9.63
2019-05-16T13:41:20.495Z,10.47
2019-05-16T13:43:52.229Z,9.13
2019-05-16T13:46:26.441Z,14.20
2019-05-16T13:48:57.657Z,12.90
2019-05-16T13:51:29.527Z,12.67
2019-05-16T13:54:01.337Z,13.03
2019-05-16T13:56:33.055Z,15.47
2019-05-16T13:59:07.514Z,15.60
2019-05-16T14:01:38.631Z,16.73
2019-05-16T14:04:10.545Z,16.83
2019-05-16T14:06:42.358Z,19.03
2019-05-16T14:09:14.119Z,20.73
2019-05-16T14:11:46.475Z,19.00
2019-05-16T14:14:33.623Z,15.03
2019-05-16T14:16:52.057Z,19.73
2019-05-16T14:19:23.764Z,19.70
2019-05-16T14:21:56.972Z,19.27
2019-05-16T14:24:28.861Z,19.03
2019-05-16T14:27:00.606Z,18.90
2019-05-16T14:29:32.396Z,29.00
2019-05-16T14:32:04.121Z,21.80
2019-05-16T14:34:38.406Z,18.80
2019-05-16T14:37:09.559Z,21.73
2019-05-16T14:39:41.504Z,21.10
2019-05-16T14:42:13.220Z,23.23
2019-05-16T14:45:03.545Z,26.03
2019-05-16T14:47:18.678Z,22.67
2019-05-16T14:49:50.410Z,21.67
2019-05-16T14:52:22.230Z,22.60
2019-05-16T14:54:53.937Z,23.30
2019-05-16T14:57:27.377Z,29.53
2019-05-16T14:59:59.333Z,23.03
2019-05-16T15:02:31.219Z,27.07
2019-05-16T15:05:03.268Z,30.00
2019-05-16T15:07:37.484Z,29.83
2019-05-16T15:10:09.016Z,24.30
2019-05-16T15:12:40.822Z,25.90
2019-05-16T15:15:21.069Z,21.83
2019-05-16T15:17:50.930Z,28.57
2019-05-16T15:20:22.773Z,22.57
2019-05-16T15:22:56.777Z,22.47
2019-05-16T15:25:28.252Z,18.83
2019-05-16T15:28:00.527Z,24.57
2019-05-16T15:30:32.397Z,21.73
2019-05-16T15:33:21.979Z,15.73
2019-05-16T15:35:53.756Z,21.40
2019-05-16T15:38:27.181Z,16.80
2019-05-16T15:41:00.470Z,16.93
2019-05-16T15:43:32.542Z,14.03
2019-05-16T15:46:08.146Z,16.67
2019-05-16T15:48:39.853Z,24.57
2019-05-16T15:51:11.871Z,22.83
2019-05-16T15:53:44.287Z,25.97
2019-05-16T15:56:17.808Z,20.07
2019-05-16T15:58:49.769Z,22.97
2019-05-16T16:01:21.556Z,20.07
2019-05-16T16:03:53.467Z,20.70
2019-05-16T16:06:27.428Z,16.93
2019-05-16T16:08:58.896Z,25.30
2019-05-16T16:11:30.602Z,14.77
2019-05-16T16:14:02.875Z,14.80
2019-05-16T16:16:34.589Z,14.43
2019-05-16T16:19:06.634Z,18.63
2019-05-16T16:21:38.553Z,27.87
2019-05-16T16:24:10.332Z,16.50
2019-05-16T16:26:42.085Z,14.50
2019-05-16T16:29:13.805Z,16.27
2019-05-16T16:31:47.595Z,13.33
2019-05-16T16:34:19.241Z,13.13
2019-05-16T16:36:51.071Z,13.03
2019-05-16T16:39:22.777Z,17.63
2019-05-16T16:41:56.755Z,19.53
2019-05-16T16:44:28.122Z,14.07
2019-05-16T16:46:59.839Z,20.73
2019-05-16T16:49:31.544Z,15.67
2019-05-16T16:52:03.385Z,16.83
2019-05-16T16:54:37.023Z,17.27
2019-05-16T16:57:08.837Z,15.63
2019-05-16T16:59:40.845Z,14.47
2019-05-16T17:02:12.681Z,18.80
2019-05-16T17:04:50.282Z,17.17
2019-05-16T17:07:18.192Z,21.17
2019-05-16T17:09:50.004Z,26.67
2019-05-16T17:12:21.830Z,16.40
2019-05-16T17:14:53.566Z,18.77
2019-05-16T17:17:26.566Z,14.40
2019-05-16T17:19:58.705Z,15.40
2019-05-16T17:22:30.460Z,21.37
2019-05-16T17:25:02.531Z,18.37
2019-05-16T17:27:34.457Z,13.33
2019-05-16T17:30:12.552Z,14.17
2019-05-16T17:32:44.372Z,16.90
2019-05-16T17:35:18.672Z,12.13
2019-05-16T17:37:50.967Z,15.10
2019-05-16T17:40:22.791Z,15.83
2019-05-16T17:42:56.734Z,13.57
2019-05-16T17:45:28.267Z,13.63
2019-05-16T17:48:00.093Z,14.93
2019-05-16T17:50:32.217Z,17.23
2019-05-16T17:53:06.825Z,15.13
2019-05-16T17:55:37.778Z,15.50
2019-05-16T17:58:09.647Z,13.17
2019-05-16T18:00:41.459Z,12.17
2019-05-16T18:03:13.266Z,13.97
2019-05-16T18:05:47.233Z,11.73
2019-05-16T18:08:18.721Z,14.53
2019-05-16T18:10:50.493Z,13.43
2019-05-16T18:13:22.229Z,11.83
2019-05-16T18:15:54.081Z,12.63
2019-05-16T18:18:26.960Z,16.53
2019-05-16T18:21:01.990Z,10.63
2019-05-16T18:23:32.482Z,13.73
2019-05-16T18:26:04.710Z,11.93
2019-05-16T18:28:36.548Z,12.43
2019-05-16T18:31:08.256Z,13.83
2019-05-16T18:33:40.012Z,16.20
2019-05-16T18:36:11.920Z,22.53
2019-05-16T18:38:43.737Z,14.40
2019-05-16T18:41:16.601Z,22.87
2019-05-16T18:43:48.521Z,22.37
2019-05-16T18:46:20.229Z,19.77
2019-05-16T18:48:51.962Z,16.10
2019-05-16T18:51:23.849Z,17.73
2019-05-16T18:53:57.008Z,20.57
2019-05-16T18:56:29.143Z,22.30
2019-05-16T18:59:01.066Z,20.27
2019-05-16T19:01:34.196Z,17.40
2019-05-16T19:04:06.829Z,16.93
2019-05-16T19:06:38.912Z,16.23
2019-05-16T19:09:10.835Z,21.90
2019-05-16T19:11:42.673Z,18.70
2019-05-16T19:14:16.740Z,16.03
2019-05-16T19:16:49.211Z,18.17
2019-05-16T19:19:21.094Z,18.27
2019-05-16T19:21:53.113Z,25.10
2019-05-16T19:24:24.924Z,19.70
2019-05-16T19:26:57.399Z,18.40
2019-05-16T19:29:29.350Z,24.47
2019-05-16T19:32:01.181Z,23.33
2019-05-16T19:34:33.075Z,29.07
2019-05-16T19:37:07.013Z,28.93
2019-05-16T19:39:38.896Z,30.23
2019-05-16T19:42:10.708Z,29.73
2019-05-16T19:44:42.445Z,34.70
2019-05-16T19:47:14.157Z,36.73
2019-05-16T19:49:46.469Z,32.77
2019-05-16T19:52:18.309Z,34.57
2019-05-16T19:54:50.151Z,39.47
2019-05-16T19:57:21.861Z,40.77
2019-05-16T19:59:53.588Z,38.00
2019-05-16T20:02:27.183Z,39.97
2019-05-16T20:04:58.929Z,37.57
2019-05-16T20:07:30.654Z,35.23
2019-05-16T20:10:03.061Z,37.93
2019-05-16T20:12:36.879Z,36.33
2019-05-16T20:15:11.911Z,39.87
2019-05-16T20:17:51.953Z,40.00
2019-05-16T20:20:18.611Z,36.53
2019-05-16T20:22:50.303Z,36.80
2019-05-16T20:25:22.118Z,37.57
2019-05-16T20:27:53.974Z,38.87
2019-05-16T20:30:26.413Z,35.90
2019-05-16T20:32:58.385Z,46.70
2019-05-16T20:35:30.192Z,41.73
2019-05-16T20:38:01.904Z,43.07
2019-05-16T20:40:33.638Z,40.00
2019-05-16T20:43:07.742Z,41.40
2019-05-16T20:45:39.925Z,36.33
2019-05-16T20:48:15.133Z,40.17
2019-05-16T20:50:48.855Z,35.57
2019-05-16T20:53:19.118Z,36.20
2019-05-16T20:55:50.915Z,34.17
2019-05-16T20:58:22.621Z,37.03
2019-05-16T21:00:54.452Z,34.00
2019-05-16T21:03:27.099Z,34.00
2019-05-16T21:05:58.965Z,36.70
2019-05-16T21:08:30.661Z,34.57
2019-05-16T21:11:02.600Z,34.13
2019-05-16T21:13:34.417Z,40.17
2019-05-16T21:16:07.176Z,36.37
2019-05-16T21:18:39.041Z,42.23
2019-05-16T21:21:10.758Z,41.57
2019-05-16T21:23:42.483Z,37.50
2019-05-16T21:26:14.202Z,38.40
2019-05-16T21:28:46.300Z,44.60
2019-05-16T21:31:19.443Z,40.80
2019-05-16T21:33:51.334Z,39.80
2019-05-16T21:36:23.244Z,45.93
2019-05-16T21:38:54.943Z,39.90
2019-05-16T21:41:27.172Z,50.37
2019-05-16T21:43:59.059Z,47.57
2019-05-16T21:46:30.765Z,42.03
2019-05-16T21:49:02.572Z,39.10
2019-05-16T21:51:34.302Z,45.90
2019-05-16T21:54:07.161Z,46.60
2019-05-16T21:56:39.116Z,46.57
2019-05-16T21:59:10.812Z,44.90
2019-05-16T22:01:42.929Z,44.50
2019-05-16T22:04:14.661Z,44.70
2019-05-16T22:06:47.469Z,47.83
2019-05-16T22:09:19.581Z,51.50
2019-05-16T22:11:51.393Z,65.97
2019-05-16T22:14:28.324Z,67.07
2019-05-16T22:17:00.141Z,61.63
2019-05-16T22:19:31.836Z,72.53
2019-05-16T22:22:03.772Z,79.83
2019-05-16T22:24:37.117Z,85.90
2019-05-16T22:27:09.285Z,107.40
2019-05-16T22:29:41.015Z,110.83
2019-05-16T22:32:12.929Z,108.50
2019-05-16T22:34:44.825Z,110.47
2019-05-16T22:37:17.161Z,125.97
2019-05-16T22:39:49.200Z,138.37
2019-05-16T22:42:21.026Z,129.30
2019-05-16T22:44:52.721Z,120.73
2019-05-16T22:47:26.618Z,135.20
2019-05-16T22:49:58.159Z,141.80
2019-05-16T22:52:30.079Z,111.43
2019-05-16T22:55:01.876Z,125.53
2019-05-16T22:57:33.585Z,111.13
2019-05-16T23:00:07.648Z,135.20
2019-05-16T23:02:39.604Z,133.03
2019-05-16T23:05:11.506Z,123.93
2019-05-16T23:07:43.225Z,127.60
2019-05-16T23:10:16.602Z,120.90
2019-05-16T23:12:48.546Z,125.47
2019-05-16T23:15:20.553Z,119.57
2019-05-16T23:17:52.278Z,119.40
2019-05-16T23:20:23.986Z,137.23
2019-05-16T23:22:56.271Z,127.63
2019-05-16T23:25:28.217Z,116.57
2019-05-16T23:27:59.932Z,127.87
2019-05-16T23:30:31.835Z,123.93
2019-05-16T23:33:03.689Z,145.90
2019-05-16T23:35:37.656Z,128.53
2019-05-16T23:38:19.501Z,175.83
2019-05-16T23:40:42.770Z,136.70
2019-05-16T23:43:14.479Z,117.83
2019-05-16T23:45:46.929Z,124.67
2019-05-16T23:48:18.918Z,115.47
2019-05-16T23:50:50.621Z,137.00
2019-05-16T23:53:22.341Z,132.23
2019-05-16T23:55:56.581Z,138.13
2019-05-16T23:58:27.740Z,115.97
